Time;durP1;ratioP1;P1;durP2;ratioP2;P2;SDS_P1;SDS_P2;PMS_P1;PMS_P2;Temp;Humidity;BMP_temperature;BMP_pressure;BME280_temperature;BME280_humidity;BME280_pressure;Samples;Min_cycle;Max_cycle;Signal;HPM_P1;HPM_P2
2023/03/18 00:01:33;;;;;;;13.05;8.38;;;;;;;6.43;83.67;100785.84;6189175;23;20020;-84
2023/03/18 00:04:00;;;;;;;17.10;8.57;;;;;;;6.49;83.20;100786.16;6216691;23;20009;-84
2023/03/18 00:06:26;;;;;;;14.10;8.15;;;;;;;6.54;82.51;100776.06;6216776;23;20066;-86
2023/03/18 00:08:51;;;;;;;16.00;9.15;;;;;;;6.79;80.36;100787.16;6215999;23;20009;-85
2023/03/18 00:11:20;;;;;;;16.10;9.02;;;;;;;6.73;80.91;100789.31;6216489;23;20063;-83
2023/03/18 00:13:46;;;;;;;14.45;8.40;;;;;;;6.64;81.76;100782.22;6217594;23;20019;-85
2023/03/18 00:16:12;;;;;;;18.27;9.88;;;;;;;6.57;81.93;100783.69;6218247;23;20063;-83
2023/03/18 00:18:39;;;;;;;15.35;8.55;;;;;;;6.45;84.18;100786.53;6217549;23;20376;-83
2023/03/18 00:21:05;;;;;;;19.23;8.82;;;;;;;6.78;80.85;100788.09;6217505;23;20016;-84
2023/03/18 00:23:32;;;;;;;19.83;9.25;;;;;;;6.60;82.72;100782.59;6190996;23;20340;-84
2023/03/18 00:25:59;;;;;;;17.55;8.95;;;;;;;6.61;82.66;100785.13;6217104;23;20012;-85
2023/03/18 00:28:25;;;;;;;13.43;8.43;;;;;;;6.79;80.75;100781.88;6216943;23;20141;-83
2023/03/18 00:30:52;;;;;;;16.02;9.32;;;;;;;6.69;81.34;100774.75;6191197;23;20013;-83
2023/03/18 00:33:18;;;;;;;13.75;8.30;;;;;;;6.95;80.27;100792.78;6218407;23;20012;-85
2023/03/18 00:35:45;;;;;;;13.90;8.63;;;;;;;6.78;80.83;100782.84;6218518;23;20013;-86
2023/03/18 00:38:19;;;;;;;13.25;8.68;;;;;;;6.94;79.20;100781.38;6190489;23;20035;-84
2023/03/18 00:40:52;;;;;;;14.07;8.38;;;;;;;6.83;80.33;100783.28;6217771;23;20009;-84
2023/03/18 00:43:28;;;;;;;13.32;8.45;;;;;;;6.87;79.51;100784.69;6217240;23;20036;-84
2023/03/18 00:45:54;;;;;;;15.02;8.65;;;;;;;6.87;80.41;100779.41;6217581;23;20014;-84
2023/03/18 00:48:22;;;;;;;15.10;8.80;;;;;;;7.08;79.44;100777.56;6218489;23;20031;-83
2023/03/18 00:50:48;;;;;;;14.27;8.68;;;;;;;6.92;80.13;100772.78;6217093;23;20012;-82
2023/03/18 00:53:15;;;;;;;13.63;8.80;;;;;;;6.63;81.31;100777.06;6191791;23;20067;-83
2023/03/18 00:55:41;;;;;;;15.55;8.10;;;;;;;6.32;84.58;100773.59;6217597;23;20371;-83
2023/03/18 00:58:08;;;;;;;13.45;8.60;;;;;;;6.12;86.76;100764.72;6191427;23;20099;-83
2023/03/18 01:00:38;;;;;;;12.35;8.05;;;;;;;6.19;86.32;100765.88;6218194;23;20383;-82
2023/03/18 01:03:05;;;;;;;16.67;9.20;;;;;;;6.00;88.92;100763.09;6217626;23;20012;-83
2023/03/18 01:05:32;;;;;;;15.80;8.55;;;;;;;6.43;85.87;100756.88;6218219;23;20000;-85
2023/03/18 01:07:58;;;;;;;15.32;8.95;;;;;;;6.30;85.40;100762.31;6218072;23;20009;-83
2023/03/18 01:10:24;;;;;;;16.80;8.75;;;;;;;6.44;84.62;100751.47;6217110;23;20062;-81
2023/03/18 01:12:50;;;;;;;16.58;9.15;;;;;;;6.60;82.19;100753.63;6189867;23;20012;-83
2023/03/18 01:15:18;;;;;;;14.65;9.00;;;;;;;6.50;82.13;100756.22;6190695;23;20497;-83
2023/03/18 01:17:45;;;;;;;12.93;8.25;;;;;;;6.34;84.64;100745.31;6190064;23;20005;-83
2023/03/18 01:20:12;;;;;;;13.27;7.63;;;;;;;6.62;82.83;100752.56;6216556;23;20043;-84
2023/03/18 01:22:41;;;;;;;17.65;8.02;;;;;;;6.59;80.09;100750.19;6190075;23;20407;-83
2023/03/18 01:25:08;;;;;;;12.63;8.05;;;;;;;6.50;81.03;100743.06;6189307;23;20012;-83
2023/03/18 01:27:37;;;;;;;12.32;7.57;;;;;;;6.30;83.06;100733.38;6216553;23;20012;-83
2023/03/18 01:30:04;;;;;;;16.50;8.10;;;;;;;5.98;84.93;100737.88;6164952;23;20012;-83
2023/03/18 01:32:30;;;;;;;15.45;7.95;;;;;;;5.99;86.53;100732.50;6189840;23;20350;-85
2023/03/18 01:34:56;;;;;;;15.25;9.27;;;;;;;6.17;84.75;100722.22;6190032;23;20005;-85
2023/03/18 01:37:22;;;;;;;16.02;8.77;;;;;;;6.16;85.87;100724.00;6190001;23;20008;-82
2023/03/18 01:39:59;;;;;;;14.52;8.30;;;;;;;6.51;83.76;100714.94;6189943;23;20393;-83
2023/03/18 01:42:25;;;;;;;14.43;7.90;;;;;;;6.39;84.48;100718.63;6190488;23;20432;-85
2023/03/18 01:45:11;;;;;;;15.60;9.60;;;;;;;6.30;87.76;100706.25;6190146;23;20055;-83
2023/03/18 01:47:38;;;;;;;16.55;9.60;;;;;;;6.42;86.69;100708.66;6190342;23;20023;-83
2023/03/18 01:50:04;;;;;;;20.80;9.55;;;;;;;6.35;87.25;100710.16;6186938;23;20440;-84
2023/03/18 01:52:31;;;;;;;14.32;8.80;;;;;;;6.25;89.31;100704.00;6187531;23;20009;-83
2023/03/18 01:55:04;;;;;;;17.55;9.52;;;;;;;6.06;90.89;100704.72;6195208;23;20036;-82
2023/03/18 01:57:32;;;;;;;17.55;9.25;;;;;;;5.86;93.86;100691.56;6196317;23;20093;-82
2023/03/18 01:59:58;;;;;;;19.60;10.02;;;;;;;5.71;96.42;100694.47;6189282;23;20039;-82
2023/03/18 02:02:25;;;;;;;19.02;10.07;;;;;;;5.83;96.56;100697.06;6185395;23;20017;-82
2023/03/18 02:04:53;;;;;;;15.80;9.32;;;;;;;6.11;93.96;100702.53;6185110;23;20023;-84
2023/03/18 02:07:29;;;;;;;13.63;9.73;;;;;;;6.30;92.42;100704.41;6185543;23;20017;-83
2023/03/18 02:09:57;;;;;;;19.50;10.05;;;;;;;6.43;90.54;100701.59;6185890;23;20010;-82
2023/03/18 02:12:28;;;;;;;15.93;9.43;;;;;;;6.48;89.00;100704.66;6185865;23;20013;-83
2023/03/18 02:14:58;;;;;;;20.33;9.07;;;;;;;6.15;91.45;100695.22;6187038;23;20013;-83
2023/03/18 02:17:33;;;;;;;17.00;8.73;;;;;;;6.34;90.30;100697.09;6166558;23;20044;-83
2023/03/18 02:20:21;;;;;;;14.98;9.27;;;;;;;6.05;90.54;100686.41;6187930;23;20019;-83
2023/03/18 02:22:51;;;;;;;11.57;7.88;;;;;;;5.85;91.79;100690.69;6160091;23;20020;-83
2023/03/18 02:25:36;;;;;;;16.63;8.52;;;;;;;5.60;92.47;100691.88;6185849;23;20052;-83
2023/03/18 02:28:09;;;;;;;14.60;9.30;;;;;;;5.67;93.12;100687.78;6184297;23;20520;-83
2023/03/18 02:30:40;;;;;;;14.27;8.55;;;;;;;5.87;91.92;100682.69;6184119;23;20009;-83
2023/03/18 02:33:09;;;;;;;15.75;8.50;;;;;;;5.79;89.96;100685.94;6184034;23;20009;-82
2023/03/18 02:35:36;;;;;;;13.60;8.70;;;;;;;5.56;92.74;100684.38;6187245;23;20004;-83
2023/03/18 02:38:03;;;;;;;13.88;7.93;;;;;;;5.50;94.30;100680.44;6160953;23;20013;-85
2023/03/18 02:40:35;;;;;;;16.30;9.38;;;;;;;5.53;93.75;100679.38;6185811;23;20020;-83
2023/03/18 02:43:21;;;;;;;13.88;8.52;;;;;;;5.84;90.77;100680.28;6184994;23;20009;-83
2023/03/18 02:46:05;;;;;;;13.55;8.52;;;;;;;5.61;92.61;100675.16;6187678;23;20013;-83
2023/03/18 02:48:37;;;;;;;17.30;8.95;;;;;;;5.50;94.85;100683.06;6185315;23;20498;-83
2023/03/18 02:51:06;;;;;;;16.88;8.57;;;;;;;5.43;95.04;100679.31;6186085;23;20021;-82
2023/03/18 02:53:32;;;;;;;13.40;8.75;;;;;;;5.39;95.80;100683.13;6184523;23;20037;-84
2023/03/18 02:55:58;;;;;;;17.00;9.27;;;;;;;5.32;96.23;100689.00;6184819;23;20017;-82
2023/03/18 02:58:27;;;;;;;18.13;9.57;;;;;;;5.31;97.52;100679.44;6159749;23;20506;-82
2023/03/18 03:00:56;;;;;;;15.70;9.18;;;;;;;5.51;97.01;100676.03;6184052;23;20020;-81
2023/03/18 03:03:23;;;;;;;16.17;9.68;;;;;;;5.41;97.63;100675.94;6185800;23;20093;-84
2023/03/18 03:05:49;;;;;;;16.70;9.93;;;;;;;5.38;97.64;100678.81;6183858;23;20089;-84
2023/03/18 03:08:15;;;;;;;15.93;8.70;;;;;;;5.54;97.84;100673.13;6183942;23;20415;-83
2023/03/18 03:10:43;;;;;;;15.10;9.50;;;;;;;5.53;97.03;100669.69;6183266;23;20012;-83
2023/03/18 03:13:10;;;;;;;15.88;8.88;;;;;;;5.52;97.35;100675.06;6183885;23;20005;-84
2023/03/18 03:15:38;;;;;;;18.52;8.57;;;;;;;5.29;98.64;100674.31;6183598;23;20015;-84
2023/03/18 03:18:04;;;;;;;14.77;8.70;;;;;;;5.62;96.23;100678.63;6158539;23;20024;-82
2023/03/18 03:20:34;;;;;;;14.95;8.82;;;;;;;5.77;93.71;100681.78;6184866;23;20013;-84
2023/03/18 03:23:02;;;;;;;16.17;9.23;;;;;;;5.64;94.04;100680.16;6185306;23;20055;-84
2023/03/18 03:25:28;;;;;;;16.45;9.05;;;;;;;5.54;95.60;100678.41;6184865;23;20080;-84
2023/03/18 03:27:54;;;;;;;18.13;9.20;;;;;;;5.47;97.34;100677.25;6183345;23;20395;-83
2023/03/18 03:30:21;;;;;;;17.27;8.93;;;;;;;5.57;97.45;100680.78;6183052;23;20047;-83
2023/03/18 03:32:47;;;;;;;18.08;9.35;;;;;;;5.63;96.06;100675.84;6184950;23;20028;-86
2023/03/18 03:35:14;;;;;;;17.75;8.88;;;;;;;5.74;94.41;100675.81;6184859;23;20099;-83
2023/03/18 03:37:41;;;;;;;15.27;9.13;;;;;;;5.78;94.21;100671.13;6185081;23;20064;-83
2023/03/18 03:40:08;;;;;;;15.90;9.30;;;;;;;5.39;99.42;100672.63;6185152;23;20469;-83
2023/03/18 03:42:34;;;;;;;14.32;9.18;;;;;;;5.71;97.90;100673.44;6184972;23;20009;-86
2023/03/18 03:45:02;;;;;;;14.13;9.38;;;;;;;5.87;95.33;100673.00;6183197;23;20044;-83
2023/03/18 03:47:28;;;;;;;13.95;9.30;;;;;;;5.93;94.75;100666.41;6183229;23;20028;-86
2023/03/18 03:49:53;;;;;;;14.75;9.43;;;;;;;5.64;97.39;100672.25;6185291;23;20033;-86
2023/03/18 03:52:19;;;;;;;17.70;9.85;;;;;;;5.47;100.00;100669.38;6184804;23;20020;-85
2023/03/18 03:54:46;;;;;;;15.25;9.13;;;;;;;5.63;99.29;100670.59;6185038;23;20100;-84
2023/03/18 03:57:11;;;;;;;17.50;9.43;;;;;;;5.74;98.45;100675.81;6186706;23;20036;-82
2023/03/18 03:59:37;;;;;;;16.80;10.18;;;;;;;5.94;96.94;100674.16;6186698;23;20035;-84
2023/03/18 04:02:11;;;;;;;18.30;10.25;;;;;;;5.39;100.00;100683.13;6184962;23;20021;-84
2023/03/18 04:04:37;;;;;;;17.08;10.23;;;;;;;5.40;100.00;100676.09;6185077;23;20020;-83
2023/03/18 04:07:06;;;;;;;17.17;9.52;;;;;;;5.60;100.00;100678.72;6184796;23;20012;-83
2023/03/18 04:09:33;;;;;;;20.15;10.40;;;;;;;5.17;100.00;100678.75;6184917;23;20037;-83
2023/03/18 04:11:59;;;;;;;15.40;9.32;;;;;;;5.19;100.00;100676.03;6184506;23;20105;-82
2023/03/18 04:14:25;;;;;;;16.35;9.60;;;;;;;5.13;100.00;100671.28;6185523;23;20009;-82
2023/03/18 04:16:50;;;;;;;14.77;9.25;;;;;;;5.10;100.00;100677.59;6187733;23;20009;-83
2023/03/18 04:19:16;;;;;;;16.15;9.85;;;;;;;5.33;100.00;100667.88;6185190;23;20040;-84
2023/03/18 04:21:42;;;;;;;19.73;9.68;;;;;;;5.30;100.00;100670.75;6186808;23;20045;-82
2023/03/18 04:24:09;;;;;;;15.27;9.20;;;;;;;5.21;100.00;100668.84;6184606;23;20005;-81
2023/03/18 04:26:35;;;;;;;15.50;9.60;;;;;;;5.06;100.00;100675.34;6186744;23;20356;-80
2023/03/18 04:29:03;;;;;;;21.33;10.10;;;;;;;4.95;100.00;100672.75;6184789;23;20012;-82
2023/03/18 04:31:30;;;;;;;16.65;8.80;;;;;;;5.08;100.00;100673.41;6185002;23;20017;-83
2023/03/18 04:33:56;;;;;;;17.42;9.68;;;;;;;5.05;100.00;100668.41;6184659;23;20017;-84
2023/03/18 04:36:22;;;;;;;15.68;8.82;;;;;;;5.09;100.00;100669.84;6186916;23;20001;-84
2023/03/18 04:38:48;;;;;;;17.02;8.52;;;;;;;4.94;100.00;100665.84;6196320;23;20070;-82
2023/03/18 04:41:14;;;;;;;15.60;8.93;;;;;;;4.85;100.00;100675.25;6203584;23;20000;-83
2023/03/18 04:43:40;;;;;;;18.15;9.15;;;;;;;4.77;100.00;100676.84;6194071;23;20025;-82
2023/03/18 04:46:07;;;;;;;16.10;9.23;;;;;;;4.92;100.00;100667.72;6185484;23;20057;-83
2023/03/18 04:48:33;;;;;;;15.05;9.27;;;;;;;5.02;100.00;100676.53;6184665;23;20005;-82
2023/03/18 04:51:02;;;;;;;15.10;8.20;;;;;;;5.20;100.00;100667.19;6184641;23;20024;-82
2023/03/18 04:53:30;;;;;;;19.20;8.90;;;;;;;5.32;99.99;100671.44;6184974;23;20016;-80
2023/03/18 04:55:56;;;;;;;14.70;9.27;;;;;;;5.26;98.90;100668.47;6184596;23;20012;-81
2023/03/18 04:58:27;;;;;;;14.60;8.15;;;;;;;4.99;100.00;100671.53;6184683;23;20013;-81
2023/03/18 05:01:05;;;;;;;19.83;8.98;;;;;;;4.89;100.00;100665.34;6184946;23;20017;-83
2023/03/18 05:03:35;;;;;;;20.02;9.63;;;;;;;5.08;100.00;100673.41;6185088;23;20092;-81
2023/03/18 05:06:01;;;;;;;16.27;9.05;;;;;;;4.92;100.00;100658.06;6185248;23;20008;-82
2023/03/18 05:08:37;;;;;;;16.52;9.73;;;;;;;4.89;100.00;100667.97;6188708;23;20009;-81
2023/03/18 05:11:03;;;;;;;15.60;9.55;;;;;;;5.16;100.00;100669.25;6190673;23;20092;-82
2023/03/18 05:13:30;;;;;;;18.83;9.65;;;;;;;5.15;100.00;100674.59;6184492;23;20009;-82
2023/03/18 05:15:56;;;;;;;22.17;9.80;;;;;;;4.96;100.00;100679.66;6184207;23;20013;-81
2023/03/18 05:18:21;;;;;;;17.40;9.60;;;;;;;5.13;100.00;100668.66;6184160;23;20016;-83
2023/03/18 05:20:50;;;;;;;18.75;9.68;;;;;;;4.47;100.00;100678.28;6160459;23;20044;-83
2023/03/18 05:23:17;;;;;;;16.58;9.90;;;;;;;4.80;100.00;100676.59;6184137;23;20063;-82
2023/03/18 05:25:49;;;;;;;16.65;8.98;;;;;;;4.84;100.00;100678.03;6184254;23;20389;-84
2023/03/18 05:28:17;;;;;;;19.88;10.00;;;;;;;4.78;100.00;100681.94;6184523;23;20376;-82
2023/03/18 05:31:03;;;;;;;18.15;9.35;;;;;;;5.18;100.00;100674.34;6139590;23;20099;-83
2023/03/18 05:33:31;;;;;;;20.25;9.98;;;;;;;5.23;100.00;100674.84;6184155;23;20058;-81
2023/03/18 05:35:57;;;;;;;14.48;9.10;;;;;;;5.58;100.00;100680.66;6184192;23;20009;-83
2023/03/18 05:38:28;;;;;;;15.90;9.82;;;;;;;5.67;95.34;100677.25;6184374;23;20016;-80
2023/03/18 05:40:54;;;;;;;18.70;9.45;;;;;;;5.64;94.14;100674.06;6184797;23;20087;-81
2023/03/18 05:43:30;;;;;;;18.17;9.63;;;;;;;5.84;92.91;100675.03;6185209;23;20013;-87
2023/03/18 05:45:57;;;;;;;16.75;9.93;;;;;;;5.78;92.76;100679.00;6185650;23;20420;-85
2023/03/18 05:48:34;;;;;;;19.00;9.40;;;;;;;5.32;98.63;100666.19;6185400;23;20013;-83
2023/03/18 05:51:04;;;;;;;15.23;9.77;;;;;;;5.65;96.78;100673.94;6187843;23;20065;-82
2023/03/18 05:53:31;;;;;;;15.30;9.90;;;;;;;5.97;92.97;100678.31;6191421;23;20036;-83
2023/03/18 05:56:06;;;;;;;18.55;9.05;;;;;;;6.29;92.41;100675.63;6190010;23;20020;-83
2023/03/18 05:58:33;;;;;;;18.48;9.27;;;;;;;6.25;90.21;100677.69;6188877;23;20013;-82
2023/03/18 06:01:15;;;;;;;18.42;8.88;;;;;;;6.34;89.77;100682.16;6187943;23;20005;-89
2023/03/18 06:03:41;;;;;;;20.02;9.90;;;;;;;6.33;90.34;100683.09;6189071;23;20036;-86
2023/03/18 06:06:08;;;;;;;25.08;9.82;;;;;;;6.50;88.39;100682.50;6191005;23;20021;-84
2023/03/18 06:08:33;;;;;;;17.05;9.55;;;;;;;6.94;85.62;100685.69;6189078;23;20345;-87
2023/03/18 06:11:00;;;;;;;18.75;10.48;;;;;;;6.47;92.34;100688.03;6184814;23;20013;-82
2023/03/18 06:13:25;;;;;;;23.00;10.43;;;;;;;7.15;85.81;100697.00;6184827;23;20094;-82
2023/03/18 06:15:57;;;;;;;16.30;9.45;;;;;;;7.54;83.78;100695.22;6185007;23;20020;-86
2023/03/18 06:18:22;;;;;;;17.05;9.93;;;;;;;8.30;78.43;100695.19;6185243;23;20019;-85
2023/03/18 06:20:48;;;;;;;17.10;10.10;;;;;;;8.89;75.63;100695.75;6184792;23;20033;-83
2023/03/18 06:23:14;;;;;;;23.35;9.70;;;;;;;10.36;67.72;100692.53;6184385;23;20431;-86
2023/03/18 06:25:40;;;;;;;18.55;10.93;;;;;;;10.33;64.81;100696.31;6184761;23;20013;-84
2023/03/18 06:28:06;;;;;;;23.35;10.68;;;;;;;9.59;67.13;100690.56;6183464;23;20080;-84
2023/03/18 06:30:33;;;;;;;19.83;9.80;;;;;;;10.30;68.07;100690.50;6183993;23;20551;-84
2023/03/18 06:32:59;;;;;;;28.27;10.45;;;;;;;10.30;65.71;100685.22;6184038;23;20024;-82
2023/03/18 06:35:27;;;;;;;22.35;10.30;;;;;;;10.42;65.31;100697.19;6184390;23;20507;-84
2023/03/18 06:37:53;;;;;;;23.13;10.60;;;;;;;10.90;63.40;100705.38;6184965;23;20092;-85
2023/03/18 06:40:19;;;;;;;25.70;12.00;;;;;;;10.83;62.52;100696.41;6185375;23;20377;-86
2023/03/18 06:42:46;;;;;;;24.15;10.80;;;;;;;10.90;63.17;100701.91;6184227;23;20107;-82
2023/03/18 06:45:25;;;;;;;22.75;11.43;;;;;;;10.46;64.25;100705.66;6185277;23;20009;-85
2023/03/18 06:47:59;;;;;;;24.05;11.20;;;;;;;10.64;64.69;100709.91;6186899;23;20021;-84
2023/03/18 06:50:26;;;;;;;25.88;11.30;;;;;;;10.80;63.43;100704.66;6190135;23;20013;-87
2023/03/18 06:52:52;;;;;;;24.55;11.00;;;;;;;10.53;65.38;100712.00;6197060;23;20027;-83
2023/03/18 06:55:28;;;;;;;22.27;11.25;;;;;;;10.77;64.05;100718.25;6190957;23;20013;-84
2023/03/18 06:57:57;;;;;;;21.42;11.45;;;;;;;10.58;65.13;100715.81;6196694;23;20019;-87
2023/03/18 07:00:31;;;;;;;21.58;11.57;;;;;;;9.74;70.58;100714.72;6197220;23;20044;-87
2023/03/18 07:03:17;;;;;;;19.83;10.60;;;;;;;9.81;71.56;100707.78;6174402;23;20029;-85
2023/03/18 07:05:47;;;;;;;22.52;11.02;;;;;;;9.97;70.66;100723.00;6196608;23;20036;-85
2023/03/18 07:08:14;;;;;;;19.63;10.68;;;;;;;10.39;68.56;100731.94;6148439;23;20044;-85
2023/03/18 07:10:41;;;;;;;25.13;10.63;;;;;;;10.02;69.16;100728.66;6197389;23;20017;-84
2023/03/18 07:13:14;;;;;;;19.35;10.65;;;;;;;9.82;69.70;100725.34;6177433;23;20052;-86
2023/03/18 07:15:46;;;;;;;19.55;11.27;;;;;;;9.69;71.26;100717.78;6207169;23;20009;-82
2023/03/18 07:18:15;;;;;;;22.70;12.02;;;;;;;9.79;71.79;100718.56;6205808;23;20064;-86
2023/03/18 07:20:43;;;;;;;21.30;11.20;;;;;;;10.32;68.70;100730.91;6210236;23;20067;-88
2023/03/18 07:23:12;;;;;;;19.00;11.00;;;;;;;10.53;67.53;100730.53;6205284;23;20065;-88
2023/03/18 07:25:37;;;;;;;16.95;10.52;;;;;;;11.24;65.06;100736.31;6182297;23;20017;-86
2023/03/18 07:28:04;;;;;;;28.73;10.85;;;;;;;11.54;62.90;100740.22;6205412;23;20009;-86
2023/03/18 07:30:30;;;;;;;20.95;10.43;;;;;;;11.23;64.38;100742.66;6203924;23;20040;-86
2023/03/18 07:33:02;;;;;;;25.27;11.32;;;;;;;11.32;63.42;100741.69;6173167;23;20017;-86
2023/03/18 07:35:28;;;;;;;;;;;;;;;11.03;64.65;100743.91;6182818;23;20021;-85
2023/03/18 07:37:54;;;;;;;16.30;9.95;;;;;;;11.59;61.34;100746.72;6200317;23;19916;-85
2023/03/18 07:40:20;;;;;;;23.60;10.57;;;;;;;10.84;63.60;100742.31;6197660;23;20088;-86
2023/03/18 07:42:54;;;;;;;22.67;11.73;;;;;;;10.68;64.54;100748.34;6193914;23;20039;-87
2023/03/18 07:45:20;;;;;;;22.95;11.20;;;;;;;10.65;67.30;100751.31;6198088;23;20033;-85
2023/03/18 07:47:53;;;;;;;21.88;10.90;;;;;;;10.95;67.12;100749.16;6175163;23;20009;-88
2023/03/18 07:50:19;;;;;;;18.75;10.50;;;;;;;10.96;64.38;100753.47;6170010;23;20017;-84
2023/03/18 07:52:44;;;;;;;18.63;10.27;;;;;;;11.05;64.32;100750.69;6190588;23;20095;-84
2023/03/18 07:55:11;;;;;;;19.33;9.70;;;;;;;12.50;59.54;100759.88;6192079;23;20013;-85
2023/03/18 07:57:37;;;;;;;17.38;11.07;;;;;;;12.92;56.70;100761.28;6195354;23;20000;-85
2023/03/18 08:00:04;;;;;;;19.48;10.90;;;;;;;13.19;54.80;100757.38;6196477;23;20016;-85
2023/03/18 08:02:41;;;;;;;22.42;11.23;;;;;;;13.58;50.53;100762.69;6195547;23;20384;-86
2023/03/18 08:05:07;;;;;;;23.95;10.60;;;;;;;13.42;49.81;100762.78;6195454;23;20348;-87
2023/03/18 08:07:35;;;;;;;20.35;9.75;;;;;;;13.90;48.15;100754.47;6196088;23;20015;-86
2023/03/18 08:10:01;;;;;;;19.33;10.98;;;;;;;14.58;44.07;100772.25;6197158;23;20021;-84
2023/03/18 08:12:27;;;;;;;19.65;10.32;;;;;;;14.09;43.86;100763.81;6197351;23;20021;-86
2023/03/18 08:14:53;;;;;;;19.73;11.18;;;;;;;14.55;42.80;100771.78;6206532;23;20060;-84
2023/03/18 08:17:22;;;;;;;21.73;11.20;;;;;;;15.75;41.98;100777.50;6214310;23;20001;-82
2023/03/18 08:19:49;;;;;;;17.77;11.10;;;;;;;16.09;39.70;100775.97;6210112;23;20032;-86
2023/03/18 08:22:14;;;;;;;20.98;12.75;;;;;;;16.22;38.12;100784.13;6206163;23;20012;-83
2023/03/18 08:24:47;;;;;;;24.17;11.40;;;;;;;16.29;39.17;100777.00;6200502;23;20076;-84
2023/03/18 08:27:31;;;;;;;17.80;10.43;;;;;;;15.51;39.56;100780.53;6194408;23;20016;-84
2023/03/18 08:30:00;;;;;;;18.65;10.95;;;;;;;15.34;41.05;100784.38;6193358;23;20084;-86
2023/03/18 08:32:29;;;;;;;17.33;11.23;;;;;;;15.35;41.70;100781.53;6194488;23;20009;-86
2023/03/18 08:35:01;;;;;;;18.75;11.25;;;;;;;14.74;41.92;100790.75;6194433;23;20013;-86
2023/03/18 08:37:32;;;;;;;18.45;11.45;;;;;;;14.21;43.95;100780.22;6167506;23;20041;-85
2023/03/18 08:39:58;;;;;;;21.13;11.85;;;;;;;13.89;44.85;100776.78;6193708;23;20020;-83
2023/03/18 08:42:24;;;;;;;19.42;12.68;;;;;;;13.82;44.80;100775.81;6190298;23;20021;-85
2023/03/18 08:44:50;;;;;;;23.52;12.23;;;;;;;15.06;42.43;100784.22;6191968;23;20009;-86
2023/03/18 08:47:15;;;;;;;23.70;11.57;;;;;;;15.18;42.06;100787.28;6193987;23;20032;-85
2023/03/18 08:49:41;;;;;;;20.70;11.45;;;;;;;14.74;44.04;100784.59;6199967;23;20012;-85
2023/03/18 08:52:07;;;;;;;21.50;11.50;;;;;;;15.05;43.73;100784.44;6196357;23;20023;-87
2023/03/18 08:54:32;;;;;;;25.40;12.50;;;;;;;15.85;41.79;100791.38;6221237;23;20058;-86
2023/03/18 08:56:59;;;;;;;22.25;12.32;;;;;;;16.86;39.31;100798.25;6229054;23;20044;-85
2023/03/18 08:59:25;;;;;;;19.95;12.38;;;;;;;16.24;39.12;100801.63;6226976;23;20024;-85
2023/03/18 09:01:53;;;;;;;21.20;12.82;;;;;;;15.52;41.16;100796.34;6228358;23;20012;-83
2023/03/18 09:04:19;;;;;;;21.73;13.73;;;;;;;15.53;40.32;100797.19;6226413;23;20016;-84
2023/03/18 09:06:45;;;;;;;20.52;12.68;;;;;;;16.28;38.88;100786.84;6226596;23;20012;-85
2023/03/18 09:09:14;;;;;;;23.80;13.40;;;;;;;16.72;38.04;100797.31;6214968;23;20023;-85
2023/03/18 09:11:44;;;;;;;23.27;14.30;;;;;;;17.42;36.14;100805.16;6221237;23;20048;-85
2023/03/18 09:14:13;;;;;;;23.10;14.65;;;;;;;16.97;36.78;100806.56;6197557;23;20341;-84
2023/03/18 09:16:39;;;;;;;24.52;14.48;;;;;;;17.02;36.91;100804.13;6227733;23;20008;-86
2023/03/18 09:19:05;;;;;;;24.70;14.57;;;;;;;16.62;38.08;100796.84;6176391;23;20015;-86
2023/03/18 09:21:31;;;;;;;22.70;14.68;;;;;;;16.91;38.14;100798.47;6231397;23;20004;-87
2023/03/18 09:23:57;;;;;;;34.45;14.93;;;;;;;17.78;36.39;100810.25;6205696;23;20063;-87
2023/03/18 09:26:23;;;;;;;22.13;14.88;;;;;;;17.71;36.47;100804.06;6203860;23;20012;-86
2023/03/18 09:28:50;;;;;;;24.35;14.02;;;;;;;18.15;35.62;100800.03;6205412;23;20083;-89
2023/03/18 09:31:16;;;;;;;24.30;15.68;;;;;;;17.72;36.96;100799.53;6227546;23;20008;-85
2023/03/18 09:33:45;;;;;;;21.92;14.48;;;;;;;17.84;37.22;100797.88;6231537;23;20009;-85
2023/03/18 09:36:11;;;;;;;24.52;14.88;;;;;;;18.15;36.20;100800.03;6230797;23;20753;-85
2023/03/18 09:38:37;;;;;;;24.80;14.35;;;;;;;17.40;37.47;100801.81;6224346;23;20088;-84
2023/03/18 09:41:02;;;;;;;24.73;14.70;;;;;;;17.25;38.43;100792.28;6222075;23;20013;-84
2023/03/18 09:43:36;;;;;;;21.92;13.38;;;;;;;17.89;36.71;100788.22;6171835;23;20031;-84
2023/03/18 09:46:21;;;;;;;24.08;13.95;;;;;;;17.83;36.39;100797.06;6196136;23;20798;-87
2023/03/18 09:48:59;;;;;;;20.35;13.15;;;;;;;18.26;36.36;100786.00;6175767;23;20013;-83
2023/03/18 09:52:01;;;;;;;21.55;13.52;;;;;;;18.70;34.80;100794.28;6175526;23;20012;-86
2023/03/18 09:54:57;;;;;;;19.55;12.93;;;;;;;19.00;35.19;100792.78;6219220;23;20019;-86
2023/03/18 09:57:36;;;;;;;25.17;13.18;;;;;;;18.74;35.73;100792.84;6223931;23;20031;-86
2023/03/18 10:00:12;;;;;;;22.95;12.80;;;;;;;19.73;34.49;100787.97;6224852;23;20008;-86
2023/03/18 10:02:44;;;;;;;22.00;13.50;;;;;;;19.65;34.95;100788.25;6198074;23;20064;-86
2023/03/18 10:05:29;;;;;;;21.85;13.82;;;;;;;18.86;35.42;100782.25;6224576;23;20016;-85
2023/03/18 10:08:06;;;;;;;20.95;13.27;;;;;;;18.52;36.31;100780.69;6227062;23;20015;-88
2023/03/18 10:10:44;;;;;;;19.52;13.18;;;;;;;18.70;36.34;100778.16;6200589;23;20013;-86
2023/03/18 10:13:20;;;;;;;23.98;13.55;;;;;;;19.13;34.87;100781.16;6229283;23;20042;-86
2023/03/18 10:16:03;;;;;;;22.85;13.48;;;;;;;19.03;35.13;100773.56;6204492;23;20019;-87
2023/03/18 10:18:37;;;;;;;;;;;;;;;19.22;35.30;100779.09;6177998;23;20055;-87
2023/03/18 10:21:23;;;;;;;24.92;13.35;;;;;;;20.04;33.74;100777.25;6227946;23;20305;-88
2023/03/18 10:24:06;;;;;;;24.38;14.50;;;;;;;20.99;31.95;100776.00;6201112;23;20043;-86
2023/03/18 10:26:55;;;;;;;28.83;15.43;;;;;;;21.02;31.85;100786.34;6224569;23;20016;-86
2023/03/18 10:29:33;;;;;;;24.45;14.63;;;;;;;21.31;31.62;100778.59;6176080;23;20015;-87
2023/03/18 10:32:02;;;;;;;23.83;13.90;;;;;;;21.24;31.69;100777.84;6230066;23;20039;-87
2023/03/18 10:35:16;;;;;;;23.80;14.00;;;;;;;20.90;32.45;100777.34;6199517;23;20017;-86
2023/03/18 10:37:54;;;;;;;22.83;14.32;;;;;;;20.62;32.94;100768.91;6180487;23;20059;-86
2023/03/18 10:40:23;;;;;;;20.88;13.15;;;;;;;20.17;31.96;100776.31;6204331;23;20039;-86
2023/03/18 10:42:51;;;;;;;21.70;12.88;;;;;;;21.19;30.32;100780.38;6217182;23;20004;-83
2023/03/18 10:45:30;;;;;;;24.88;12.98;;;;;;;22.24;29.82;100784.38;6233506;23;20436;-85
2023/03/18 10:48:03;;;;;;;24.75;13.07;;;;;;;21.74;30.67;100784.66;6194892;23;20009;-85
2023/03/18 10:50:42;;;;;;;24.02;14.15;;;;;;;21.52;31.59;100775.41;6219572;23;20019;-85
2023/03/18 10:53:35;;;;;;;21.33;13.23;;;;;;;21.72;31.35;100778.66;6192624;23;20016;-84
2023/03/18 10:56:21;;;;;;;22.05;13.77;;;;;;;21.12;32.10;100786.66;6195032;23;20029;-86
2023/03/18 10:58:46;;;;;;;28.15;13.05;;;;;;;21.29;31.92;100776.13;6220045;23;20013;-82
2023/03/18 11:01:17;;;;;;;22.42;14.27;;;;;;;21.65;31.60;100767.13;6195107;23;20033;-84
2023/03/18 11:03:49;;;;;;;21.98;13.90;;;;;;;21.48;32.61;100758.84;6218078;23;20019;-86
2023/03/18 11:06:40;;;;;;;87.03;58.73;;;;;;;21.36;32.44;100760.69;6194915;23;20009;-85
2023/03/18 11:09:09;;;;;;;25.48;14.25;;;;;;;21.40;32.67;100751.09;6225274;23;20091;-83
2023/03/18 11:11:39;;;;;;;22.60;14.10;;;;;;;22.37;30.93;100749.84;6216574;23;20095;-84
2023/03/18 11:14:11;;;;;;;23.33;12.18;;;;;;;22.11;29.96;100770.00;6224169;23;20016;-84
2023/03/18 11:16:37;;;;;;;23.95;13.25;;;;;;;22.33;30.62;100755.97;6223645;23;20055;-86
2023/03/18 11:19:40;;;;;;;21.55;13.82;;;;;;;22.81;30.43;100744.94;6224992;23;20309;-83
2023/03/18 11:22:09;;;;;;;23.27;12.05;;;;;;;21.80;30.26;100758.63;6222722;23;20026;-82
2023/03/18 11:24:43;;;;;;;23.02;12.48;;;;;;;20.92;31.54;100748.31;6219960;23;20013;-86
2023/03/18 11:27:34;;;;;;;23.58;12.63;;;;;;;21.90;30.62;100753.53;6201238;23;20021;-85
2023/03/18 11:30:10;;;;;;;25.05;13.50;;;;;;;21.93;30.68;100748.50;6136766;23;20039;-84